Time;durP1;ratioP1;P1;durP2;ratioP2;P2;SDS_P1;SDS_P2;PMS_P1;PMS_P2;Temp;Humidity;BMP_temperature;BMP_pressure;BME280_temperature;BME280_humidity;BME280_pressure;Samples;Min_cycle;Max_cycle;Signal;HPM_P1;HPM_P2
2022/06/11 00:02:15;;;;;;;5.20;2.55;;;17.50;97.40;;;;;;6936569;28;20097;-80
2022/06/11 00:05:37;;;;;;;6.33;2.70;;;17.40;97.50;;;;;;6923653;28;20522;-79
2022/06/11 00:09:01;;;;;;;6.10;2.33;;;17.50;97.60;;;;;;6946116;28;20446;-78
2022/06/11 00:12:25;;;;;;;4.47;2.80;;;17.40;97.50;;;;;;6948529;28;20057;-78
2022/06/11 00:15:47;;;;;;;4.22;2.33;;;17.20;97.40;;;;;;6950770;28;20462;-80
2022/06/11 00:19:10;;;;;;;8.40;2.80;;;17.20;97.50;;;;;;6950806;28;20133;-78
2022/06/11 00:22:32;;;;;;;4.80;2.80;;;17.20;97.50;;;;;;6947739;28;20525;-80
2022/06/11 00:25:56;;;;;;;6.43;2.85;;;17.20;97.60;;;;;;6950721;28;20049;-78
2022/06/11 00:29:21;;;;;;;7.00;3.15;;;17.10;97.70;;;;;;6950475;28;20540;-79
2022/06/11 00:32:43;;;;;;;6.03;3.30;;;17.00;97.70;;;;;;6944211;28;20083;-79
2022/06/11 00:36:08;;;;;;;7.80;3.50;;;16.80;97.50;;;;;;6946379;28;20100;-78
2022/06/11 00:39:34;;;;;;;6.00;3.40;;;16.70;97.90;;;;;;6944790;28;20053;-80
2022/06/11 00:42:58;;;;;;;6.30;3.42;;;16.60;98.10;;;;;;6944511;28;20072;-79
2022/06/11 00:47:00;;;;;;;5.85;3.28;;;16.60;98.00;;;;;;6945975;28;20080;-79
2022/06/11 00:50:27;;;;;;;5.47;3.40;;;16.60;98.10;;;;;;6941940;28;20075;-77
2022/06/11 00:53:56;;;;;;;6.20;3.15;;;16.60;98.40;;;;;;6944770;28;20104;-79
2022/06/11 00:57:18;;;;;;;6.28;3.30;;;16.50;98.50;;;;;;6943735;28;20041;-79
2022/06/11 01:00:47;;;;;;;6.43;3.63;;;16.50;98.40;;;;;;6944279;28;20518;-78
2022/06/11 01:04:49;;;;;;;7.15;3.67;;;16.40;98.20;;;;;;6940530;28;20805;-77
2022/06/11 01:08:52;;;;;;;5.57;3.35;;;16.10;98.30;;;;;;6945381;28;20048;-78
2022/06/11 01:12:25;;;;;;;6.15;3.33;;;15.90;98.70;;;;;;6921892;28;20054;-78
2022/06/11 01:15:55;;;;;;;5.68;3.30;;;15.80;99.10;;;;;;6945100;28;20053;-79
2022/06/11 01:20:06;;;;;;;5.43;2.95;;;15.80;99.40;;;;;;6945290;28;20084;-80
2022/06/11 01:24:09;;;;;;;5.38;2.67;;;15.70;99.50;;;;;;6906362;28;20092;-81
2022/06/11 01:27:55;;;;;;;7.80;3.75;;;15.50;99.90;;;;;;6922389;28;20050;-80
2022/06/11 01:31:26;;;;;;;5.07;2.60;;;15.60;99.90;;;;;;6934748;28;20502;-80
2022/06/11 01:35:17;;;;;;;5.95;2.80;;;15.70;99.90;;;;;;6944754;28;20045;-78
2022/06/11 01:38:44;;;;;;;5.07;2.78;;;15.80;99.90;;;;;;6944775;28;20049;-80
2022/06/11 01:42:17;;;;;;;4.82;3.13;;;15.80;99.90;;;;;;6945172;28;20073;-80
2022/06/11 01:45:40;;;;;;;8.13;3.70;;;15.80;99.90;;;;;;6946268;28;20084;-80
2022/06/11 01:49:09;;;;;;;6.70;3.60;;;15.60;99.90;;;;;;6943849;28;20085;-79
2022/06/11 01:53:03;;;;;;;6.78;3.53;;;15.50;99.90;;;;;;6939993;28;20103;-80
2022/06/11 01:56:57;;;;;;;6.88;3.58;;;15.50;99.90;;;;;;6946395;28;20065;-79
2022/06/11 02:00:24;;;;;;;5.47;3.40;;;15.50;99.90;;;;;;6945845;28;20077;-80
2022/06/11 02:03:57;;;;;;;5.25;3.03;;;15.60;99.90;;;;;;6919284;28;20084;-79
2022/06/11 02:07:29;;;;;;;6.32;3.08;;;15.50;99.90;;;;;;6916797;28;20050;-81
2022/06/11 02:11:04;;;;;;;5.32;3.00;;;15.40;99.90;;;;;;6917543;28;20391;-79
2022/06/11 02:14:33;;;;;;;5.55;2.63;;;15.40;99.90;;;;;;6941993;28;20052;-78
2022/06/11 02:18:04;;;;;;;5.57;2.80;;;15.40;99.90;;;;;;6943753;28;20103;-80
2022/06/11 02:21:33;;;;;;;5.65;2.67;;;15.40;99.90;;;;;;6941536;28;20045;-81
2022/06/11 02:25:07;;;;;;;4.82;2.50;;;15.40;99.90;;;;;;6943479;28;20061;-78
2022/06/11 02:28:35;;;;;;;6.03;2.70;;;15.40;99.90;;;;;;6943340;28;20045;-79
2022/06/11 02:32:03;;;;;;;4.38;2.42;;;15.30;99.90;;;;;;6939693;28;20045;-79
2022/06/11 02:35:32;;;;;;;6.80;2.55;;;15.20;99.90;;;;;;6942310;28;20479;-81
2022/06/11 02:38:56;;;;;;;5.10;2.40;;;15.20;99.90;;;;;;6941862;28;20050;-79
2022/06/11 02:42:22;;;;;;;5.03;2.60;;;15.00;99.90;;;;;;6940186;28;20053;-78
2022/06/11 02:45:45;;;;;;;3.78;2.15;;;15.00;99.90;;;;;;6942287;28;20481;-80
2022/06/11 02:49:11;;;;;;;4.63;2.20;;;15.00;99.90;;;;;;6943593;28;20053;-78
2022/06/11 02:52:33;;;;;;;3.20;2.03;;;15.10;99.90;;;;;;6943842;28;20046;-78
2022/06/11 02:55:55;;;;;;;4.73;2.47;;;15.10;99.90;;;;;;6942558;28;20045;-80
2022/06/11 02:59:20;;;;;;;4.55;2.10;;;15.10;99.90;;;;;;6936385;28;20081;-79
2022/06/11 03:02:45;;;;;;;4.57;2.30;;;15.00;99.90;;;;;;6933391;28;20045;-80
2022/06/11 03:06:07;;;;;;;5.40;2.25;;;15.00;99.90;;;;;;6942728;28;20399;-79
2022/06/11 03:09:33;;;;;;;4.87;2.10;;;15.00;99.90;;;;;;6942758;28;20096;-78
2022/06/11 03:12:56;;;;;;;5.22;2.50;;;15.00;99.90;;;;;;6939610;28;20115;-78
2022/06/11 03:16:20;;;;;;;3.90;1.98;;;15.00;99.90;;;;;;6942660;28;20053;-80
2022/06/11 03:19:43;;;;;;;5.80;1.90;;;15.00;99.90;;;;;;6942324;28;20052;-79
2022/06/11 03:23:05;;;;;;;4.68;2.10;;;15.00;99.90;;;;;;6940374;28;20073;-78
2022/06/11 03:26:27;;;;;;;4.28;2.22;;;15.00;99.90;;;;;;6940416;28;20080;-80
2022/06/11 03:29:50;;;;;;;4.87;2.40;;;15.00;99.90;;;;;;6942163;28;20084;-78
2022/06/11 03:33:15;;;;;;;4.95;2.20;;;15.00;99.90;;;;;;6940384;28;20514;-79
2022/06/11 03:36:37;;;;;;;4.35;2.20;;;15.00;99.90;;;;;;6942286;28;20068;-79
2022/06/11 03:39:59;;;;;;;5.53;2.03;;;14.90;99.90;;;;;;6941343;28;20097;-81
2022/06/11 03:43:21;;;;;;;5.13;2.50;;;14.90;99.90;;;;;;6941434;28;20805;-80
2022/06/11 03:46:44;;;;;;;3.07;2.00;;;14.80;99.90;;;;;;6942086;28;20076;-79
2022/06/11 03:50:12;;;;;;;4.65;2.38;;;14.90;99.90;;;;;;6940064;28;20057;-78
2022/06/11 03:53:36;;;;;;;6.18;2.28;;;14.90;99.90;;;;;;6941314;28;20503;-77
2022/06/11 03:56:59;;;;;;;4.70;2.00;;;14.90;99.90;;;;;;6925717;28;20050;-80
2022/06/11 04:04:07;;;;;;;5.05;2.10;;;14.90;99.90;;;;;;6940839;28;20558;-80
2022/06/11 04:07:31;;;;;;;5.20;2.33;;;15.00;99.90;;;;;;6945979;28;20148;-80
2022/06/11 04:10:56;;;;;;;3.90;2.10;;;15.00;99.90;;;;;;6942970;28;20049;-78
2022/06/11 04:14:18;;;;;;;5.38;2.00;;;14.90;99.90;;;;;;6946983;28;20045;-81
2022/06/11 04:17:42;;;;;;;3.70;1.97;;;14.90;99.90;;;;;;6945753;28;20057;-80
2022/06/11 04:21:08;;;;;;;3.75;2.03;;;14.80;99.90;;;;;;6943945;28;20045;-79
2022/06/11 04:24:32;;;;;;;4.65;2.22;;;14.70;99.90;;;;;;6946625;28;20105;-80
2022/06/11 04:27:54;;;;;;;3.90;2.28;;;14.70;99.90;;;;;;6946626;28;20052;-80
2022/06/11 04:31:17;;;;;;;4.23;2.30;;;14.80;99.90;;;;;;6941727;28;20057;-80
2022/06/11 04:34:40;;;;;;;3.65;2.20;;;15.00;99.90;;;;;;6946382;28;20114;-79
2022/06/11 04:38:02;;;;;;;4.40;2.00;;;15.20;99.90;;;;;;6946246;28;20088;-80
2022/06/11 04:41:26;;;;;;;5.00;2.33;;;15.20;99.90;;;;;;6942728;28;20060;-79
2022/06/11 04:44:49;;;;;;;5.07;2.67;;;15.20;99.90;;;;;;6945970;28;20045;-78
2022/06/11 04:48:11;;;;;;;;;;;15.30;99.90;;;;;;6943721;28;20155;-79
2022/06/11 04:51:33;;;;;;;4.45;2.33;;;15.40;99.90;;;;;;6947984;28;19928;-79
2022/06/11 04:54:55;;;;;;;4.73;2.00;;;15.50;99.90;;;;;;6940441;28;20376;-78
2022/06/11 04:58:20;;;;;;;3.97;2.20;;;15.50;99.90;;;;;;6920951;28;20309;-79
2022/06/11 05:01:43;;;;;;;4.95;2.60;;;15.70;99.90;;;;;;6928089;28;20046;-79
2022/06/11 05:05:08;;;;;;;4.07;2.40;;;15.70;99.90;;;;;;6921131;28;20136;-80
2022/06/11 05:08:30;;;;;;;7.00;2.70;;;15.70;99.90;;;;;;6924760;28;20049;-80
2022/06/11 05:11:53;;;;;;;4.45;2.38;;;15.70;99.90;;;;;;6917880;28;20054;-80
2022/06/11 05:15:16;;;;;;;5.40;2.60;;;15.70;99.90;;;;;;6923668;28;20136;-81
2022/06/11 05:18:38;;;;;;;7.57;2.80;;;15.70;99.90;;;;;;6924457;28;20168;-78
2022/06/11 05:22:01;;;;;;;5.50;2.90;;;15.70;99.90;;;;;;6934138;28;20100;-78
2022/06/11 05:25:23;;;;;;;4.75;2.72;;;15.70;99.90;;;;;;6945002;28;20092;-79
2022/06/11 05:28:46;;;;;;;6.32;2.75;;;15.80;99.90;;;;;;6944904;28;20041;-78
2022/06/11 05:32:09;;;;;;;7.35;2.70;;;15.80;99.90;;;;;;6924321;28;20077;-79
2022/06/11 05:35:33;;;;;;;4.43;2.50;;;15.90;99.90;;;;;;6923382;28;20069;-79
2022/06/11 05:38:56;;;;;;;5.55;2.70;;;15.90;99.90;;;;;;6919342;28;20073;-77
2022/06/11 05:42:21;;;;;;;5.05;2.72;;;16.00;99.90;;;;;;6933449;28;20041;-79
2022/06/11 05:45:57;;;;;;;6.80;2.58;;;15.90;99.90;;;;;;6944691;28;20049;-78
2022/06/11 05:49:26;;;;;;;4.65;2.50;;;15.90;99.90;;;;;;6920170;28;20081;-78
2022/06/11 05:52:49;;;;;;;7.50;2.55;;;16.00;99.90;;;;;;6933215;28;20081;-77
2022/06/11 05:56:12;;;;;;;4.13;2.47;;;16.20;99.90;;;;;;6918901;28;20046;-77
2022/06/11 05:59:40;;;;;;;4.72;2.60;;;16.20;99.90;;;;;;6922844;28;20088;-77
2022/06/11 06:03:02;;;;;;;4.65;2.45;;;16.30;99.90;;;;;;6940460;28;20041;-78
2022/06/11 06:06:26;;;;;;;6.07;2.70;;;16.30;99.90;;;;;;6943625;28;20052;-78
2022/06/11 06:09:48;;;;;;;5.25;2.47;;;16.40;99.90;;;;;;6942499;28;20085;-78
2022/06/11 06:16:48;;;;;;;4.28;2.40;;;16.50;99.90;;;;;;6912245;28;20123;-79
2022/06/11 06:20:15;;;;;;;4.53;2.40;;;16.50;99.90;;;;;;6915984;28;20081;-78
2022/06/11 06:23:38;;;;;;;4.90;2.45;;;16.60;99.90;;;;;;6929971;28;20045;-78
2022/06/11 06:27:01;;;;;;;3.63;2.20;;;16.60;99.90;;;;;;6940674;28;20510;-79
2022/06/11 06:30:23;;;;;;;6.15;2.40;;;16.70;99.90;;;;;;6941415;28;20121;-79
2022/06/11 06:33:45;;;;;;;4.53;2.40;;;16.70;99.90;;;;;;6944118;28;20045;-78
2022/06/11 06:37:07;;;;;;;;;;;16.90;99.90;;;;;;6932356;28;20050;-77
2022/06/11 06:40:31;;;;;;;4.35;2.35;;;17.10;99.80;;;;;;6904291;28;19965;-78
2022/06/11 06:43:53;;;;;;;4.38;2.35;;;17.20;99.90;;;;;;6897872;28;20037;-79
2022/06/11 06:47:15;;;;;;;4.80;2.50;;;17.20;99.90;;;;;;6918288;28;20492;-76
2022/06/11 06:50:37;;;;;;;5.70;2.53;;;17.30;99.80;;;;;;6935425;28;20049;-79
2022/06/11 06:53:59;;;;;;;5.32;2.35;;;17.40;99.90;;;;;;6941260;28;20506;-79
2022/06/11 06:57:23;;;;;;;5.73;2.50;;;17.50;99.90;;;;;;6919488;28;20045;-77
2022/06/11 07:00:47;;;;;;;4.75;2.30;;;17.50;99.90;;;;;;6919680;28;20089;-78
2022/06/11 07:04:09;;;;;;;4.97;2.30;;;17.70;99.90;;;;;;6938226;28;20151;-78
2022/06/11 07:07:33;;;;;;;4.25;2.10;;;17.70;99.90;;;;;;6942630;28;20508;-78
2022/06/11 07:10:56;;;;;;;8.15;2.40;;;17.80;99.80;;;;;;6940476;28;20072;-79
2022/06/11 07:14:19;;;;;;;4.35;2.42;;;17.90;99.90;;;;;;6943548;28;20045;-80
2022/06/11 07:17:47;;;;;;;4.32;2.25;;;18.00;99.90;;;;;;6931475;28;20074;-79
2022/06/11 07:21:17;;;;;;;5.10;2.42;;;18.10;99.90;;;;;;6928686;28;20080;-80
2022/06/11 07:24:41;;;;;;;5.00;2.22;;;18.20;99.90;;;;;;6910913;28;20092;-80
2022/06/11 07:28:08;;;;;;;4.55;2.28;;;18.20;99.90;;;;;;6931971;28;20046;-80
2022/06/11 07:31:32;;;;;;;5.25;2.38;;;18.30;99.90;;;;;;6915548;28;20089;-79
2022/06/11 07:34:54;;;;;;;5.13;2.33;;;18.40;99.90;;;;;;6936497;28;20065;-78
2022/06/11 07:38:18;;;;;;;6.32;2.45;;;18.40;99.80;;;;;;6951641;28;20064;-79
2022/06/11 07:41:40;;;;;;;5.05;2.38;;;18.50;99.80;;;;;;6951818;28;20041;-80
2022/06/11 07:45:03;;;;;;;5.82;2.90;;;18.60;99.80;;;;;;6949425;28;20080;-81
2022/06/11 07:48:26;;;;;;;5.18;2.42;;;18.70;99.60;;;;;;6950299;28;20061;-79
2022/06/11 07:51:48;;;;;;;5.97;2.67;;;18.80;99.60;;;;;;6954052;28;20042;-79
2022/06/11 07:55:11;;;;;;;3.70;2.08;;;18.80;99.40;;;;;;6925600;28;20053;-80
2022/06/11 07:58:34;;;;;;;5.63;2.50;;;19.00;98.90;;;;;;6934424;28;20046;-80
2022/06/11 08:01:56;;;;;;;4.90;2.20;;;19.00;98.70;;;;;;6920971;28;20506;-80
2022/06/11 08:05:20;;;;;;;4.70;2.20;;;19.10;98.70;;;;;;6924758;28;20053;-79
2022/06/11 08:08:45;;;;;;;3.83;2.20;;;19.10;98.40;;;;;;6940393;28;20682;-79
2022/06/11 08:12:08;;;;;;;4.85;2.22;;;19.30;97.90;;;;;;6944920;28;20522;-80
2022/06/11 08:15:30;;;;;;;4.30;2.15;;;19.40;98.30;;;;;;6940423;28;20042;-78
2022/06/11 08:18:52;;;;;;;3.45;1.90;;;19.60;95.90;;;;;;6944873;28;20052;-82
2022/06/11 08:22:16;;;;;;;6.30;2.00;;;19.60;95.50;;;;;;6941677;28;20088;-78
2022/06/11 08:25:38;;;;;;;6.43;3.20;;;19.70;94.00;;;;;;6937449;28;20093;-79
2022/06/11 08:29:00;;;;;;;4.00;2.03;;;19.80;93.80;;;;;;6913223;28;20534;-78
2022/06/11 08:32:22;;;;;;;5.30;2.00;;;19.90;93.00;;;;;;6925320;28;20414;-78
2022/06/11 08:35:45;;;;;;;4.82;1.90;;;20.00;92.40;;;;;;6946886;28;20085;-80
2022/06/11 08:39:08;;;;;;;4.85;1.95;;;20.00;91.70;;;;;;6946861;28;20411;-79
2022/06/11 08:42:36;;;;;;;4.22;1.52;;;20.20;92.90;;;;;;6930430;28;20081;-80
2022/06/11 08:46:03;;;;;;;4.55;1.90;;;20.30;91.60;;;;;;6941216;28;20484;-78
2022/06/11 08:49:33;;;;;;;4.10;1.88;;;20.40;91.80;;;;;;6946233;28;20123;-78
2022/06/11 08:52:57;;;;;;;5.43;1.90;;;20.50;91.50;;;;;;6933624;28;20057;-79
2022/06/11 08:56:29;;;;;;;4.03;1.73;;;20.60;92.50;;;;;;6917957;28;20080;-77
2022/06/11 09:00:08;;;;;;;3.42;1.75;;;20.70;91.00;;;;;;6934262;28;20510;-80
2022/06/11 09:03:47;;;;;;;4.07;1.40;;;20.90;87.40;;;;;;6938045;28;20076;-78
2022/06/11 09:07:25;;;;;;;3.40;1.52;;;21.00;85.50;;;;;;6942032;28;20491;-78
2022/06/11 09:11:12;;;;;;;2.47;1.13;;;21.00;86.20;;;;;;6925931;28;20046;-79
2022/06/11 09:15:17;;;;;;;4.47;1.60;;;21.10;82.40;;;;;;6921215;28;20057;-76
2022/06/11 09:19:02;;;;;;;5.03;1.50;;;21.10;78.20;;;;;;6919938;28;20075;-79
2022/06/11 09:22:51;;;;;;;3.42;1.55;;;21.20;79.90;;;;;;6927387;28;20488;-78
2022/06/11 09:26:31;;;;;;;3.30;1.30;;;21.30;78.80;;;;;;6918385;28;20046;-78
2022/06/11 09:30:06;;;;;;;5.75;1.50;;;21.40;77.20;;;;;;6919101;28;20403;-77
2022/06/11 09:33:37;;;;;;;3.95;1.75;;;21.50;76.00;;;;;;6919956;28;20499;-79
2022/06/11 09:37:10;;;;;;;3.50;1.50;;;21.50;77.00;;;;;;6920157;28;20057;-77
2022/06/11 09:40:40;;;;;;;3.35;1.40;;;21.70;77.60;;;;;;6919182;28;20510;-78
2022/06/11 09:44:27;;;;;;;3.67;1.40;;;21.70;74.80;;;;;;6918003;28;20053;-78
2022/06/11 09:48:15;;;;;;;3.78;1.42;;;21.80;76.30;;;;;;6917925;28;20042;-79
2022/06/11 09:51:45;;;;;;;3.70;1.40;;;21.80;73.80;;;;;;6917776;28;20054;-79
2022/06/11 09:55:27;;;;;;;3.75;1.33;;;21.90;74.20;;;;;;6917509;28;20061;-78
2022/06/11 09:58:58;;;;;;;3.60;1.25;;;21.90;72.80;;;;;;6917424;28;20046;-79
2022/06/11 10:02:30;;;;;;;3.10;1.42;;;21.90;72.00;;;;;;6917809;28;20463;-81
2022/06/11 10:05:58;;;;;;;;;;;22.00;71.90;;;;;;6923438;28;20050;-79
2022/06/11 10:09:26;;;;;;;6.78;2.03;;;22.20;70.80;;;;;;6917398;28;19960;-77
2022/06/11 10:12:55;;;;;;;10.98;4.38;;;22.30;67.20;;;;;;6916831;28;20061;-79
2022/06/11 10:16:31;;;;;;;4.40;1.40;;;22.20;67.40;;;;;;6920281;28;20506;-79
2022/06/11 10:20:02;;;;;;;4.78;1.10;;;22.30;66.20;;;;;;6929141;28;20050;-80
2022/06/11 10:23:38;;;;;;;4.88;1.40;;;22.40;65.90;;;;;;6913504;28;20052;-81
2022/06/11 10:27:06;;;;;;;6.20;1.58;;;22.40;66.60;;;;;;6941259;28;20083;-79
2022/06/11 10:30:48;;;;;;;3.70;1.20;;;22.50;66.60;;;;;;6941455;28;20518;-80
2022/06/11 10:34:16;;;;;;;3.45;1.33;;;22.60;64.60;;;;;;6925938;28;20050;-80
2022/06/11 10:37:44;;;;;;;3.33;1.10;;;22.70;66.30;;;;;;6933912;28;20052;-85
2022/06/11 10:41:17;;;;;;;4.07;1.30;;;22.90;66.00;;;;;;6943081;28;20411;-87
2022/06/11 10:44:43;;;;;;;3.67;1.23;;;22.90;66.70;;;;;;6943488;28;20050;-85
2022/06/11 10:48:16;;;;;;;3.75;1.33;;;23.00;64.60;;;;;;6922963;28;20476;-87
2022/06/11 10:51:40;;;;;;;4.82;1.27;;;23.10;65.00;;;;;;6933581;28;20081;-77
2022/06/11 10:55:03;;;;;;;4.25;1.20;;;23.00;63.50;;;;;;6941427;28;20127;-76
2022/06/11 10:58:31;;;;;;;4.15;1.30;;;23.20;62.60;;;;;;6938517;28;20479;-74
2022/06/11 11:02:03;;;;;;;6.07;1.38;;;23.20;63.30;;;;;;6941827;28;20057;-81
2022/06/11 11:05:25;;;;;;;;;;;23.20;62.50;;;;;;6941501;28;20501;-79
2022/06/11 11:08:52;;;;;;;;;;;23.30;62.00;;;;;;6939448;28;19975;-80
2022/06/11 11:12:24;;;;;;;5.70;1.50;;;23.20;64.80;;;;;;6941746;28;19921;-81
2022/06/11 11:15:58;;;;;;;195.30;122.43;;;23.20;64.60;;;;;;6910360;28;20045;-81
2022/06/11 11:19:24;;;;;;;4.95;2.05;;;24.00;63.90;;;;;;6937216;28;20042;-79
2022/06/11 11:22:54;;;;;;;7.10;1.55;;;24.00;63.20;;;;;;6940814;28;20092;-80
2022/06/11 11:26:26;;;;;;;3.10;1.27;;;23.80;61.00;;;;;;6940230;28;20081;-85
2022/06/11 11:29:54;;;;;;;5.95;1.45;;;23.60;61.50;;;;;;6939804;28;20080;-79
2022/06/11 11:33:28;;;;;;;2.67;1.25;;;23.70;62.70;;;;;;6931613;28;20411;-83
2022/06/11 11:36:51;;;;;;;4.03;1.17;;;23.70;60.40;;;;;;6929641;28;20050;-79
2022/06/11 11:40:27;;;;;;;3.53;1.30;;;23.80;61.00;;;;;;6935998;28;20137;-84
2022/06/11 11:43:49;;;;;;;2.75;1.00;;;23.80;61.40;;;;;;6926651;28;20093;-82
2022/06/11 11:47:22;;;;;;;3.67;1.30;;;23.90;63.40;;;;;;6934281;28;20049;-78
2022/06/11 11:50:46;;;;;;;4.10;1.13;;;24.00;61.10;;;;;;6924090;28;20057;-82
2022/06/11 11:54:17;;;;;;;3.35;1.23;;;24.10;61.50;;;;;;6905956;28;20085;-83
2022/06/11 11:57:40;;;;;;;3.20;1.20;;;24.20;60.40;;;;;;6938618;28;20049;-83
2022/06/11 12:01:08;;;;;;;8.27;1.40;;;24.20;62.50;;;;;;6937250;28;20073;-80
2022/06/11 12:04:33;;;;;;;4.13;1.35;;;24.20;60.60;;;;;;6906807;28;20097;-78
2022/06/11 12:07:59;;;;;;;6.93;3.15;;;24.30;63.10;;;;;;6918278;28;20094;-76
2022/06/11 12:11:35;;;;;;;2.88;1.40;;;24.40;62.10;;;;;;6915779;28;20058;-79
2022/06/11 12:15:01;;;;;;;3.53;1.13;;;24.50;61.20;;;;;;6916419;28;20049;-78
2022/06/11 12:18:31;;;;;;;5.05;1.20;;;24.60;59.10;;;;;;6918412;28;20077;-79
2022/06/11 12:21:59;;;;;;;3.22;1.10;;;24.60;57.80;;;;;;6931856;28;20060;-79
2022/06/11 12:25:35;;;;;;;2.78;1.25;;;24.60;58.50;;;;;;6913759;28;20407;-80
2022/06/11 12:29:05;;;;;;;3.05;1.10;;;24.70;59.30;;;;;;6939038;28;20541;-82
2022/06/11 12:32:30;;;;;;;4.03;1.42;;;24.90;60.80;;;;;;6928231;28;20103;-82
2022/06/11 12:36:00;;;;;;;3.13;1.13;;;25.00;60.30;;;;;;6930321;28;20077;-79
2022/06/11 12:39:43;;;;;;;4.90;1.67;;;25.10;58.80;;;;;;6932901;28;20080;-80
2022/06/11 12:43:20;;;;;;;5.68;1.80;;;25.20;58.80;;;;;;6940481;28;20041;-79
2022/06/11 12:46:49;;;;;;;5.68;1.20;;;25.30;59.50;;;;;;6915497;28;20049;-81
2022/06/11 12:50:27;;;;;;;3.33;1.20;;;25.40;58.90;;;;;;6917715;28;20558;-81
2022/06/11 12:53:59;;;;;;;3.67;1.23;;;25.50;58.00;;;;;;6918561;28;20053;-81
2022/06/11 12:57:37;;;;;;;7.68;2.92;;;25.60;58.50;;;;;;6918780;28;20049;-80
2022/06/11 13:01:08;;;;;;;10.05;5.43;;;25.70;57.60;;;;;;6925027;28;20094;-78
2022/06/11 13:05:15;;;;;;;5.63;2.20;;;25.80;58.90;;;;;;6924296;28;20050;-88
2022/06/11 13:08:51;;;;;;;4.35;1.50;;;25.90;57.20;;;;;;6883464;28;20046;-88
2022/06/11 13:12:27;;;;;;;4.32;1.13;;;25.90;57.00;;;;;;6914186;28;20046;-89
2022/06/11 13:16:05;;;;;;;3.63;1.20;;;25.90;56.20;;;;;;6946602;28;20110;-89
2022/06/11 13:19:38;;;;;;;3.60;1.40;;;26.10;58.80;;;;;;6915325;28;20506;-88
2022/06/11 13:23:14;;;;;;;7.43;3.22;;;26.10;56.10;;;;;;6918959;28;20077;-87
2022/06/11 13:26:52;;;;;;;4.43;1.52;;;26.00;56.30;;;;;;6938237;28;20053;-89
2022/06/11 13:30:31;;;;;;;3.38;1.13;;;26.00;55.60;;;;;;6943787;28;20157;-87
2022/06/11 13:34:12;;;;;;;2.88;1.15;;;26.00;55.80;;;;;;6934671;28;20060;-87
2022/06/11 13:37:48;;;;;;;7.30;3.90;;;25.80;55.10;;;;;;6899508;28;20042;-88
2022/06/11 13:41:18;;;;;;;3.70;1.33;;;26.10;56.20;;;;;;6918585;28;20053;-86
2022/06/11 13:45:06;;;;;;;3.15;1.10;;;26.40;57.00;;;;;;6923424;28;20116;-87
2022/06/11 13:48:51;;;;;;;4.05;1.17;;;26.40;55.10;;;;;;6916711;28;20634;-88
2022/06/11 13:55:10;;;;;;;5.40;1.27;;;26.40;56.50;;;;;;6922449;28;20495;-87
2022/06/11 13:56:13;;;;;;;3.05;1.20;;;26.60;55.20;;;;;;6931357;28;20554;-89
2022/06/11 14:00:08;;;;;;;3.30;1.00;;;26.70;55.10;;;;;;6946986;28;20046;-90
2022/06/11 14:04:28;;;;;;;4.32;1.20;;;26.70;53.70;;;;;;6945306;28;20046;-89
2022/06/11 14:07:53;;;;;;;2.22;0.90;;;26.70;52.80;;;;;;6903219;28;20053;-86
2022/06/11 14:11:45;;;;;;;3.13;0.98;;;26.90;52.20;;;;;;6921916;28;20053;-88
2022/06/11 14:15:48;;;;;;;3.80;1.30;;;27.00;51.60;;;;;;6945668;28;20045;-89
2022/06/11 14:19:40;;;;;;;3.17;1.00;;;26.90;51.70;;;;;;6943845;28;20045;-88
2022/06/11 14:23:07;;;;;;;3.20;1.30;;;27.10;52.80;;;;;;6938116;28;20171;-85
2022/06/11 14:26:54;;;;;;;4.35;1.15;;;27.10;52.60;;;;;;6933609;28;20042;-84
2022/06/11 14:30:26;;;;;;;3.97;1.20;;;27.20;51.30;;;;;;6914418;28;20050;-85
2022/06/11 14:34:13;;;;;;;2.38;0.90;;;27.40;52.30;;;;;;6937737;28;20140;-85
2022/06/11 14:37:35;;;;;;;5.57;1.20;;;27.40;50.30;;;;;;6941242;28;20107;-84
2022/06/11 14:41:47;;;;;;;2.38;1.10;;;27.50;50.50;;;;;;6939288;28;20076;-84
2022/06/11 14:45:45;;;;;;;3.70;1.90;;;27.80;51.20;;;;;;6917682;28;20049;-85
2022/06/11 14:49:14;;;;;;;2.67;1.00;;;28.00;51.50;;;;;;6905720;28;20043;-85
2022/06/11 14:52:49;;;;;;;4.70;1.10;;;28.00;50.50;;;;;;6903516;28;20053;-87
2022/06/11 14:56:27;;;;;;;6.30;1.20;;;27.90;50.30;;;;;;6917763;28;20045;-86
2022/06/11 15:00:21;;;;;;;2.80;1.00;;;28.00;49.10;;;;;;6915748;28;20045;-86
2022/06/11 15:04:09;;;;;;;2.83;1.10;;;28.10;49.30;;;;;;6915036;28;20507;-87
2022/06/11 15:07:58;;;;;;;3.65;1.10;;;28.10;49.70;;;;;;6916568;28;20046;-88
2022/06/11 15:11:43;;;;;;;2.80;1.05;;;28.20;49.90;;;;;;6904759;28;20380;-87
2022/06/11 15:15:34;;;;;;;3.28;1.13;;;28.40;49.70;;;;;;6927617;28;20139;-87
2022/06/11 15:19:00;;;;;;;3.83;1.10;;;28.50;49.20;;;;;;6928620;28;20050;-83
2022/06/11 15:22:34;;;;;;;3.03;1.30;;;28.60;50.30;;;;;;6928237;28;20497;-84
2022/06/11 15:25:59;;;;;;;2.90;1.08;;;28.80;50.60;;;;;;6936595;28;20138;-87
2022/06/11 15:29:25;;;;;;;2.90;1.20;;;28.90;49.30;;;;;;6942173;28;20480;-80
2022/06/11 15:32:51;;;;;;;4.80;1.48;;;29.00;49.60;;;;;;6940476;28;20510;-81
2022/06/11 15:36:13;;;;;;;6.82;1.20;;;29.00;49.00;;;;;;6938845;28;20112;-80
2022/06/11 15:39:38;;;;;;;4.47;1.20;;;28.90;49.80;;;;;;6940839;28;20160;-83
2022/06/11 15:43:05;;;;;;;3.35;1.40;;;29.00;49.20;;;;;;6940050;28;20483;-78
2022/06/11 15:46:35;;;;;;;7.28;2.08;;;29.00;49.10;;;;;;6914368;28;20133;-77
2022/06/11 15:50:15;;;;;;;6.25;1.60;;;29.10;49.30;;;;;;6913145;28;20042;-81
2022/06/11 15:57:27;;;;;;;3.30;1.40;;;29.80;49.30;;;;;;6925064;28;20073;-80
2022/06/11 16:00:52;;;;;;;4.50;1.60;;;30.90;47.60;;;;;;6941669;28;20049;-79
2022/06/11 16:04:22;;;;;;;3.85;1.52;;;31.80;45.60;;;;;;6946286;28;20076;-80
2022/06/11 16:07:50;;;;;;;3.13;1.40;;;30.80;48.40;;;;;;6944561;28;20060;-78
2022/06/11 16:11:19;;;;;;;4.82;1.63;;;30.40;48.20;;;;;;6942625;28;20060;-79
2022/06/11 16:14:44;;;;;;;4.97;1.75;;;30.10;48.90;;;;;;6921403;28;20050;-79
2022/06/11 16:18:27;;;;;;;4.65;1.98;;;30.00;49.00;;;;;;6922944;28;20077;-80
2022/06/11 16:21:57;;;;;;;4.47;1.77;;;30.10;49.30;;;;;;6944827;28;20094;-80
2022/06/11 16:25:31;;;;;;;4.07;1.50;;;30.10;49.50;;;;;;6931715;28;20480;-78
2022/06/11 16:28:56;;;;;;;5.18;1.92;;;30.00;47.80;;;;;;6919070;28;20050;-82
2022/06/11 16:32:19;;;;;;;5.18;1.67;;;30.10;48.20;;;;;;6916429;28;20054;-80
2022/06/11 16:35:49;;;;;;;5.70;2.33;;;30.10;47.90;;;;;;6945243;28;20497;-81
2022/06/11 16:39:15;;;;;;;4.32;2.10;;;30.10;47.70;;;;;;6947097;28;20046;-82
2022/06/11 16:42:47;;;;;;;5.03;2.47;;;30.20;47.20;;;;;;6944491;28;20507;-86
2022/06/11 16:46:10;;;;;;;4.47;1.80;;;30.30;48.40;;;;;;6946711;28;20054;-85
2022/06/11 16:57:02;;;;;;;3.70;1.40;;;30.30;48.00;;;;;;6942705;28;20053;-81
2022/06/11 17:00:38;;;;;;;4.50;1.17;;;30.30;47.70;;;;;;6922701;28;20172;-77
2022/06/11 17:04:16;;;;;;;3.88;1.25;;;30.30;46.70;;;;;;6924490;28;20056;-77
2022/06/11 17:07:40;;;;;;;5.05;1.80;;;30.50;47.30;;;;;;6924750;28;20089;-80
2022/06/11 17:11:04;;;;;;;3.53;1.42;;;30.40;47.50;;;;;;6935748;28;20053;-80
2022/06/11 17:14:26;;;;;;;5.80;1.38;;;30.50;47.90;;;;;;6942461;28;20049;-78
2022/06/11 17:17:54;;;;;;;6.05;2.13;;;30.50;47.60;;;;;;6930016;28;20042;-77
2022/06/11 17:21:22;;;;;;;2.72;1.30;;;30.50;48.60;;;;;;6945181;28;20081;-81
2022/06/11 17:24:50;;;;;;;5.15;1.45;;;30.60;47.00;;;;;;6927402;28;20100;-80
2022/06/11 17:28:26;;;;;;;3.63;1.40;;;30.60;48.10;;;;;;6924354;28;20053;-84
2022/06/11 17:31:51;;;;;;;5.53;1.65;;;30.50;48.90;;;;;;6913399;28;20471;-80
2022/06/11 17:35:15;;;;;;;5.60;1.58;;;30.70;48.80;;;;;;6945590;28;20046;-81
2022/06/11 17:38:40;;;;;;;4.45;1.40;;;30.70;47.60;;;;;;6945176;28;20131;-79
2022/06/11 17:42:03;;;;;;;3.60;1.60;;;30.70;48.10;;;;;;6928045;28;20053;-79
2022/06/11 17:45:28;;;;;;;3.50;1.33;;;30.70;49.70;;;;;;6909895;28;20056;-77
2022/06/11 17:48:51;;;;;;;4.13;1.60;;;30.60;47.60;;;;;;6918689;28;20092;-80
2022/06/11 17:52:25;;;;;;;4.50;2.30;;;30.50;48.30;;;;;;6898271;28;20081;-79
2022/06/11 17:55:48;;;;;;;7.40;3.90;;;30.20;49.00;;;;;;6911941;28;20058;-80
2022/06/11 17:59:13;;;;;;;11.95;6.13;;;29.90;50.80;;;;;;6931624;28;20423;-86
2022/06/11 18:02:39;;;;;;;4.80;2.17;;;30.10;50.90;;;;;;6940636;28;20136;-77
2022/06/11 18:06:01;;;;;;;4.32;1.90;;;30.30;50.70;;;;;;6940659;28;20065;-78
2022/06/11 18:09:24;;;;;;;;;;;30.10;51.20;;;;;;6937254;28;20077;-79
2022/06/11 18:12:46;;;;;;;3.38;1.52;;;29.90;52.40;;;;;;6916331;28;19928;-79
2022/06/11 18:16:15;;;;;;;4.20;1.73;;;29.90;51.90;;;;;;6915809;28;20069;-78
2022/06/11 18:19:38;;;;;;;4.88;1.60;;;29.90;52.40;;;;;;6924307;28;20053;-78
2022/06/11 18:26:44;;;;;;;4.85;2.30;;;29.80;51.40;;;;;;6877546;28;20077;-78
2022/06/11 18:30:09;;;;;;;5.82;2.25;;;29.50;51.80;;;;;;6912226;28;20167;-78
2022/06/11 18:33:31;;;;;;;4.78;2.05;;;29.50;51.80;;;;;;6918274;28;20369;-78
2022/06/11 18:36:53;;;;;;;5.97;2.70;;;29.50;52.20;;;;;;6912216;28;20092;-80